Time;durP1;ratioP1;P1;durP2;ratioP2;P2;SDS_P1;SDS_P2;PMS_P1;PMS_P2;Temp;Humidity;BMP_temperature;BMP_pressure;BME280_temperature;BME280_humidity;BME280_pressure;Samples;Min_cycle;Max_cycle;Signal;HPM_P1;HPM_P2
2023/02/28 00:01:23;;;;;;;2.60;1.25;;;-1.60;99.90;;;;;;5019421;28;25115;-72
2023/02/28 00:03:50;;;;;;;4.97;1.58;;;-1.60;99.90;;;;;;5036960;28;25119;-73
2023/02/28 00:06:19;;;;;;;3.13;1.73;;;-1.60;99.90;;;;;;5036786;28;25050;-72
2023/02/28 00:08:47;;;;;;;3.00;1.40;;;-1.60;99.90;;;;;;5036587;28;25071;-72
2023/02/28 00:11:15;;;;;;;2.22;1.30;;;-1.60;99.90;;;;;;5036838;28;25115;-72
2023/02/28 00:13:48;;;;;;;5.53;1.48;;;-1.50;99.90;;;;;;5036129;28;25073;-72
2023/02/28 00:16:19;;;;;;;2.00;0.98;;;-1.50;99.90;;;;;;5019100;28;25071;-72
2023/02/28 00:18:47;;;;;;;2.13;1.08;;;-1.50;99.90;;;;;;5018833;28;25065;-72
2023/02/28 00:21:15;;;;;;;4.10;1.35;;;-1.50;99.90;;;;;;5036626;28;25068;-72
2023/02/28 00:23:43;;;;;;;2.83;1.80;;;-1.50;99.90;;;;;;5018904;28;25066;-72
2023/02/28 00:26:11;;;;;;;3.53;1.25;;;-1.50;99.90;;;;;;5036453;28;25130;-72
2023/02/28 00:28:38;;;;;;;2.78;1.20;;;-1.40;99.90;;;;;;5018885;28;25117;-72
2023/02/28 00:31:06;;;;;;;3.17;1.35;;;-1.40;99.90;;;;;;5036485;28;25098;-72
2023/02/28 00:33:33;;;;;;;4.47;1.40;;;-1.40;99.90;;;;;;5036823;28;25090;-72
2023/02/28 00:36:10;;;;;;;2.45;1.20;;;-1.40;99.90;;;;;;5018674;28;25066;-72
2023/02/28 00:38:39;;;;;;;3.08;1.15;;;-1.50;99.90;;;;;;5018798;28;25053;-73
2023/02/28 00:41:07;;;;;;;3.13;1.13;;;-1.50;99.90;;;;;;5036997;28;25092;-72
2023/02/28 00:43:35;;;;;;;2.75;0.93;;;-1.50;99.90;;;;;;5018744;28;25061;-72
2023/02/28 00:46:04;;;;;;;3.33;1.33;;;-1.50;99.90;;;;;;5018712;28;25097;-72
2023/02/28 00:48:31;;;;;;;3.22;1.10;;;-1.60;99.90;;;;;;5036419;28;25045;-72
2023/02/28 00:50:58;;;;;;;2.58;1.20;;;-1.60;99.90;;;;;;5018705;28;25144;-72
2023/02/28 00:53:26;;;;;;;3.20;1.08;;;-1.70;99.90;;;;;;5036191;28;25067;-72
2023/02/28 00:55:53;;;;;;;4.30;1.77;;;-1.70;99.90;;;;;;5018607;28;25074;-73
2023/02/28 00:58:20;;;;;;;4.30;1.50;;;-1.70;99.90;;;;;;5018555;28;25109;-72
2023/02/28 01:00:48;;;;;;;5.90;1.77;;;-1.70;99.90;;;;;;5036113;28;25063;-72
2023/02/28 01:03:18;;;;;;;8.15;2.63;;;-1.80;99.90;;;;;;5036747;28;25072;-72
2023/02/28 01:05:46;;;;;;;12.20;3.28;;;-1.80;99.90;;;;;;5036762;28;25060;-72
2023/02/28 01:08:14;;;;;;;6.07;2.65;;;-1.80;99.90;;;;;;5035495;28;25058;-73
2023/02/28 01:10:41;;;;;;;6.72;2.22;;;-1.90;99.90;;;;;;5018451;28;25053;-73
2023/02/28 01:13:08;;;;;;;3.67;1.80;;;-1.90;99.90;;;;;;5035993;28;25059;-73
2023/02/28 01:15:37;;;;;;;7.20;2.28;;;-2.00;99.90;;;;;;5018561;28;25065;-75
2023/02/28 01:18:04;;;;;;;6.07;1.90;;;-2.00;99.90;;;;;;5018006;28;25109;-73
2023/02/28 01:20:32;;;;;;;4.97;2.10;;;-2.10;99.90;;;;;;5035877;28;25066;-72
2023/02/28 01:22:59;;;;;;;3.50;1.60;;;-2.10;99.90;;;;;;5035907;28;25099;-73
2023/02/28 01:25:27;;;;;;;3.97;1.33;;;-2.10;99.90;;;;;;5036061;28;25086;-73
2023/02/28 01:27:55;;;;;;;5.60;1.88;;;-2.10;99.90;;;;;;5035736;28;25117;-73
2023/02/28 01:30:22;;;;;;;3.85;1.50;;;-2.20;99.90;;;;;;5035863;28;25087;-73
2023/02/28 01:32:51;;;;;;;2.05;1.00;;;-2.30;99.90;;;;;;5036216;28;25065;-73
2023/02/28 01:35:19;;;;;;;2.75;1.38;;;-2.30;99.90;;;;;;5035862;28;25121;-72
2023/02/28 01:37:46;;;;;;;3.53;1.20;;;-2.30;99.90;;;;;;5035845;28;25068;-73
2023/02/28 01:40:14;;;;;;;4.40;1.60;;;-2.30;99.90;;;;;;5035618;28;25113;-73
2023/02/28 01:42:42;;;;;;;3.35;1.35;;;-2.40;99.90;;;;;;5034458;28;25071;-73
2023/02/28 01:45:30;;;;;;;4.97;1.42;;;-2.40;99.90;;;;;;5018364;28;25053;-73
2023/02/28 01:48:07;;;;;;;3.17;1.25;;;-2.50;99.90;;;;;;5039032;28;25103;-73
2023/02/28 01:50:40;;;;;;;2.40;1.10;;;-2.60;99.90;;;;;;5039317;28;25128;-73
2023/02/28 01:53:13;;;;;;;3.78;1.38;;;-2.70;99.90;;;;;;5021664;28;25069;-72
2023/02/28 01:55:45;;;;;;;4.15;1.15;;;-2.70;99.90;;;;;;5039372;28;25141;-73
2023/02/28 01:58:13;;;;;;;3.45;1.52;;;-2.80;99.90;;;;;;5039167;28;25139;-72
2023/02/28 02:00:42;;;;;;;2.88;1.35;;;-2.80;99.90;;;;;;5039849;28;25102;-73
2023/02/28 02:03:12;;;;;;;4.97;1.25;;;-2.90;99.90;;;;;;5039304;28;25079;-73
2023/02/28 02:05:41;;;;;;;3.63;1.50;;;-2.90;99.90;;;;;;5021168;28;25118;-73
2023/02/28 02:08:18;;;;;;;2.88;1.30;;;-3.00;99.90;;;;;;5038963;28;25098;-73
2023/02/28 02:11:00;;;;;;;3.38;1.30;;;-3.10;99.90;;;;;;5039683;28;25095;-73
2023/02/28 02:14:08;;;;;;;2.38;0.90;;;-3.10;99.90;;;;;;5038850;28;25086;-73
2023/02/28 02:17:05;;;;;;;1.67;0.90;;;-3.10;99.90;;;;;;5015884;28;25163;-73
2023/02/28 02:20:07;;;;;;;3.88;1.02;;;-3.20;99.90;;;;;;5021272;28;25049;-73
2023/02/28 02:23:13;;;;;;;1.85;1.00;;;-3.30;99.90;;;;;;5038954;28;25075;-72
2023/02/28 02:25:46;;;;;;;2.40;0.93;;;-3.30;99.90;;;;;;5038953;28;25080;-73
2023/02/28 02:28:51;;;;;;;4.45;1.08;;;-3.30;99.90;;;;;;5020949;28;25050;-72
2023/02/28 02:32:00;;;;;;;3.85;1.20;;;-3.40;99.90;;;;;;5039092;28;25105;-73
2023/02/28 02:35:13;;;;;;;2.80;1.00;;;-3.40;99.90;;;;;;5038890;28;25121;-73
2023/02/28 02:37:45;;;;;;;3.63;1.00;;;-3.40;99.90;;;;;;5029573;28;25099;-73
2023/02/28 02:40:20;;;;;;;2.17;1.20;;;-3.50;99.90;;;;;;5040838;28;25067;-73
2023/02/28 02:42:51;;;;;;;4.73;1.37;;;-3.60;99.90;;;;;;5038358;28;25073;-73
2023/02/28 02:45:36;;;;;;;3.67;1.20;;;-3.60;99.90;;;;;;5020752;28;25067;-73
2023/02/28 02:48:07;;;;;;;2.50;0.82;;;-3.60;99.90;;;;;;5038021;28;25051;-73
2023/02/28 02:51:05;;;;;;;2.75;0.98;;;-3.60;99.90;;;;;;5038336;28;25098;-73
2023/02/28 02:53:43;;;;;;;1.55;0.90;;;-3.70;99.90;;;;;;5036104;28;25065;-73
2023/02/28 02:56:12;;;;;;;1.50;0.70;;;-3.70;99.90;;;;;;5038049;28;25081;-73
2023/02/28 02:58:44;;;;;;;1.67;1.05;;;-3.80;99.90;;;;;;5038529;28;25066;-73
2023/02/28 03:01:30;;;;;;;2.83;1.13;;;-3.80;99.90;;;;;;5037915;28;25054;-73
2023/02/28 03:04:12;;;;;;;9.70;1.63;;;-3.80;99.90;;;;;;5038431;28;25064;-72
2023/02/28 03:06:40;;;;;;;6.10;2.08;;;-3.90;99.90;;;;;;5037854;28;25079;-73
2023/02/28 03:09:07;;;;;;;2.75;1.27;;;-3.90;99.90;;;;;;5038530;28;25049;-73
2023/02/28 03:11:37;;;;;;;2.95;1.02;;;-3.90;99.90;;;;;;5038321;28;25112;-73
2023/02/28 03:14:36;;;;;;;3.08;1.33;;;-4.00;99.90;;;;;;5037986;28;25062;-72
2023/02/28 03:17:35;;;;;;;1.60;0.85;;;-3.90;99.90;;;;;;5037614;28;25050;-73
2023/02/28 03:20:21;;;;;;;2.75;1.25;;;-4.00;99.90;;;;;;5037819;28;25103;-73
2023/02/28 03:23:17;;;;;;;4.65;1.10;;;-4.00;99.90;;;;;;5038113;28;25106;-73
2023/02/28 03:26:06;;;;;;;4.80;1.48;;;-4.10;99.90;;;;;;5037755;28;25069;-72
2023/02/28 03:28:56;;;;;;;3.60;1.08;;;-4.10;99.90;;;;;;5037749;28;25054;-72
2023/02/28 03:31:43;;;;;;;4.88;1.27;;;-4.10;99.90;;;;;;5037897;28;25090;-73
2023/02/28 03:34:27;;;;;;;2.58;0.95;;;-4.10;99.90;;;;;;5037652;28;25058;-72
2023/02/28 03:37:08;;;;;;;2.90;0.80;;;-4.10;99.90;;;;;;5037300;28;25053;-73
2023/02/28 03:39:49;;;;;;;4.38;1.10;;;-4.20;99.90;;;;;;5037062;28;25065;-73
2023/02/28 03:42:24;;;;;;;4.07;1.58;;;-4.20;99.90;;;;;;5019653;28;25066;-73
2023/02/28 03:45:00;;;;;;;2.40;1.33;;;-4.20;99.90;;;;;;5037352;28;25126;-73
2023/02/28 03:47:54;;;;;;;3.22;0.95;;;-4.20;99.90;;;;;;5037042;28;25072;-72
2023/02/28 03:50:40;;;;;;;1.42;0.75;;;-4.20;99.90;;;;;;5037117;28;25055;-73
2023/02/28 03:53:45;;;;;;;2.60;1.08;;;-4.30;99.90;;;;;;5037278;28;25068;-72
2023/02/28 03:56:58;;;;;;;1.70;0.80;;;-4.30;99.90;;;;;;5019419;28;25055;-72
2023/02/28 03:59:46;;;;;;;3.53;1.08;;;-4.30;99.90;;;;;;5032571;28;25114;-72
2023/02/28 04:02:13;;;;;;;5.45;1.25;;;-4.40;99.90;;;;;;5036851;28;25058;-72
2023/02/28 04:04:44;;;;;;;4.68;0.90;;;-4.40;99.90;;;;;;5019246;28;25065;-72
2023/02/28 04:07:12;;;;;;;2.58;1.00;;;-4.40;99.90;;;;;;5037004;28;25075;-73
2023/02/28 04:09:40;;;;;;;2.08;1.15;;;-4.50;99.90;;;;;;5036366;28;25058;-72
2023/02/28 04:12:07;;;;;;;2.88;1.05;;;-4.40;99.90;;;;;;5037207;28;25054;-73
2023/02/28 04:14:35;;;;;;;3.33;1.30;;;-4.50;99.90;;;;;;5037032;28;25081;-73
2023/02/28 04:17:02;;;;;;;2.60;1.08;;;-4.40;99.90;;;;;;5036595;28;25124;-72
2023/02/28 04:19:29;;;;;;;3.80;1.65;;;-4.40;99.90;;;;;;5036486;28;25059;-73
2023/02/28 04:21:57;;;;;;;3.63;0.85;;;-4.50;99.90;;;;;;5018922;28;25102;-72
2023/02/28 04:24:26;;;;;;;2.25;1.13;;;-4.50;99.90;;;;;;5019102;28;25143;-72
2023/02/28 04:26:55;;;;;;;3.42;1.00;;;-4.50;99.90;;;;;;5036406;28;25071;-73
2023/02/28 04:29:25;;;;;;;4.50;1.27;;;-4.50;99.90;;;;;;5036356;28;25069;-73
2023/02/28 04:32:01;;;;;;;2.08;1.02;;;-4.60;99.90;;;;;;5036386;28;25058;-73
2023/02/28 04:34:31;;;;;;;3.05;1.02;;;-4.60;99.90;;;;;;5036348;28;25071;-72
2023/02/28 04:37:00;;;;;;;1.80;0.90;;;-4.60;99.90;;;;;;5036288;28;25054;-73
2023/02/28 04:39:27;;;;;;;3.20;1.25;;;-4.60;99.90;;;;;;5036329;28;25104;-72
2023/02/28 04:41:54;;;;;;;3.28;1.30;;;-4.60;99.90;;;;;;5036258;28;25087;-73
2023/02/28 04:44:22;;;;;;;6.40;1.60;;;-4.60;99.90;;;;;;5018897;28;25053;-72
2023/02/28 04:46:50;;;;;;;2.90;1.17;;;-4.60;99.90;;;;;;5036511;28;25075;-72
2023/02/28 04:49:17;;;;;;;3.22;1.00;;;-4.60;99.90;;;;;;5036677;28;25116;-72
2023/02/28 04:51:45;;;;;;;2.95;1.08;;;-4.60;99.90;;;;;;5036640;28;25074;-72
2023/02/28 04:54:13;;;;;;;4.68;1.13;;;-4.60;99.90;;;;;;5018753;28;25084;-72
2023/02/28 04:56:40;;;;;;;6.43;1.05;;;-4.60;99.90;;;;;;5018553;28;25099;-72
2023/02/28 04:59:08;;;;;;;3.80;1.15;;;-4.60;99.90;;;;;;5018473;28;25065;-73
2023/02/28 05:01:36;;;;;;;4.32;1.00;;;-4.60;99.90;;;;;;5018737;28;25098;-72
2023/02/28 05:04:04;;;;;;;2.25;1.08;;;-4.60;99.90;;;;;;5018602;28;25101;-73
2023/02/28 05:06:33;;;;;;;5.82;1.20;;;-4.60;99.90;;;;;;5036479;28;25059;-72
2023/02/28 05:09:01;;;;;;;2.60;1.27;;;-4.60;99.90;;;;;;5035949;28;25080;-72
2023/02/28 05:11:37;;;;;;;3.30;1.10;;;-4.70;99.90;;;;;;5019223;28;25060;-72
2023/02/28 05:14:04;;;;;;;;;;;-4.70;99.90;;;;;;5036552;28;25117;-72
2023/02/28 05:16:32;;;;;;;9.43;2.28;;;-4.70;99.90;;;;;;5036015;28;25081;-72
2023/02/28 05:18:59;;;;;;;8.27;2.50;;;-4.70;99.90;;;;;;5036399;28;25079;-72
2023/02/28 05:21:37;;;;;;;5.53;2.30;;;-4.70;99.90;;;;;;5019551;28;25051;-72
2023/02/28 05:24:11;;;;;;;6.97;2.28;;;-4.70;99.90;;;;;;5022413;28;25072;-72
2023/02/28 05:26:42;;;;;;;6.78;2.63;;;-4.70;99.90;;;;;;5039703;28;25094;-72
2023/02/28 05:29:09;;;;;;;7.57;3.20;;;-4.70;99.90;;;;;;5039665;28;25106;-72
2023/02/28 05:31:38;;;;;;;8.77;3.33;;;-4.70;99.90;;;;;;5039596;28;25091;-72
2023/02/28 05:34:05;;;;;;;3.42;1.73;;;-4.70;99.90;;;;;;5040185;28;25113;-72
2023/02/28 05:36:32;;;;;;;4.85;1.75;;;-4.70;99.90;;;;;;5039566;28;25093;-72
2023/02/28 05:39:00;;;;;;;2.28;0.90;;;-4.70;99.90;;;;;;5039430;28;25065;-73
2023/02/28 05:41:27;;;;;;;3.70;1.10;;;-4.80;99.90;;;;;;5005433;28;25062;-72
2023/02/28 05:43:54;;;;;;;5.72;1.95;;;-4.80;99.90;;;;;;5039608;28;25113;-72
2023/02/28 05:46:22;;;;;;;2.55;1.58;;;-4.80;99.90;;;;;;5039903;28;25089;-72
2023/02/28 05:48:49;;;;;;;9.15;2.72;;;-4.80;99.90;;;;;;5021675;28;25063;-72
2023/02/28 05:51:17;;;;;;;13.02;5.95;;;-4.90;99.90;;;;;;5039289;28;25087;-72
2023/02/28 05:53:45;;;;;;;16.80;4.85;;;-4.90;99.90;;;;;;5039172;28;25097;-72
2023/02/28 05:56:12;;;;;;;9.60;2.60;;;-4.90;99.90;;;;;;5039207;28;25127;-72
2023/02/28 05:58:39;;;;;;;9.68;2.90;;;-4.90;99.90;;;;;;5039352;28;25090;-72
2023/02/28 06:01:33;;;;;;;11.73;4.13;;;-5.00;99.90;;;;;;5021463;28;25086;-72
2023/02/28 06:04:05;;;;;;;11.45;3.75;;;-5.00;99.90;;;;;;5039144;28;25088;-71
2023/02/28 06:06:37;;;;;;;5.97;2.35;;;-5.00;99.90;;;;;;5021436;28;25068;-73
2023/02/28 06:09:05;;;;;;;13.15;4.45;;;-5.00;99.90;;;;;;5039338;28;25084;-72
2023/02/28 06:11:32;;;;;;;16.95;5.70;;;-5.00;99.90;;;;;;5021314;28;25076;-73
2023/02/28 06:14:00;;;;;;;12.02;3.78;;;-5.00;99.90;;;;;;5038926;28;25117;-72
2023/02/28 06:16:29;;;;;;;13.55;4.72;;;-5.00;99.90;;;;;;5038843;28;25121;-73
2023/02/28 06:18:59;;;;;;;7.28;2.83;;;-5.10;99.90;;;;;;5038966;28;25091;-72
2023/02/28 06:21:27;;;;;;;10.32;2.72;;;-5.10;99.90;;;;;;5038719;28;25136;-73
2023/02/28 06:23:55;;;;;;;14.57;3.50;;;-5.10;99.90;;;;;;5021094;28;25061;-73
2023/02/28 06:26:23;;;;;;;11.07;3.03;;;-5.10;99.90;;;;;;5038557;28;25079;-73
2023/02/28 06:28:50;;;;;;;11.57;4.03;;;-5.00;99.90;;;;;;5038781;28;25067;-72
2023/02/28 06:31:18;;;;;;;13.48;4.65;;;-5.00;99.90;;;;;;5038567;28;25067;-73
2023/02/28 06:33:47;;;;;;;9.57;3.25;;;-5.00;99.90;;;;;;5038675;28;25075;-72
2023/02/28 06:36:15;;;;;;;8.23;2.85;;;-4.90;99.90;;;;;;5038679;28;25097;-72
2023/02/28 06:38:45;;;;;;;10.48;3.10;;;-4.90;99.90;;;;;;5038253;28;25051;-72
2023/02/28 06:41:12;;;;;;;8.00;2.55;;;-4.80;99.90;;;;;;5058224;28;25113;-72
2023/02/28 06:43:42;;;;;;;6.05;2.63;;;-4.70;99.90;;;;;;5058501;28;25060;-71
2023/02/28 06:46:13;;;;;;;7.60;3.63;;;-4.60;99.90;;;;;;5058237;28;25112;-72
2023/02/28 06:48:41;;;;;;;11.15;3.63;;;-4.40;99.90;;;;;;5058106;28;25068;-71
2023/02/28 06:51:16;;;;;;;7.13;2.47;;;-4.30;99.90;;;;;;5058231;28;25098;-72
2023/02/28 06:53:44;;;;;;;6.82;2.83;;;-4.20;99.90;;;;;;5040407;28;25470;-76
2023/02/28 06:56:13;;;;;;;6.70;2.80;;;-4.10;99.90;;;;;;5040338;28;25078;-76
2023/02/28 06:58:41;;;;;;;5.30;2.58;;;-4.10;99.90;;;;;;5057844;28;25104;-76
2023/02/28 07:01:08;;;;;;;6.30;2.83;;;-4.00;99.90;;;;;;5058040;28;25054;-78
2023/02/28 07:03:36;;;;;;;7.47;3.00;;;-4.00;99.90;;;;;;5040108;28;25076;-78
2023/02/28 07:06:04;;;;;;;7.68;3.53;;;-4.00;99.90;;;;;;5057856;28;25092;-80
2023/02/28 07:08:32;;;;;;;6.60;3.20;;;-4.00;99.90;;;;;;5043680;28;25107;-84
2023/02/28 07:11:00;;;;;;;7.82;3.20;;;-4.00;99.90;;;;;;5040068;28;25127;-78
2023/02/28 07:13:28;;;;;;;7.35;2.95;;;-4.00;99.90;;;;;;5040062;28;25115;-78
2023/02/28 07:16:01;;;;;;;7.28;2.92;;;-4.00;99.90;;;;;;5056288;28;25047;-77
2023/02/28 07:18:29;;;;;;;8.10;2.78;;;-4.00;99.90;;;;;;5057572;28;25117;-77
2023/02/28 07:20:56;;;;;;;7.20;2.83;;;-4.00;99.90;;;;;;5039120;28;25054;-79
2023/02/28 07:23:24;;;;;;;8.55;3.65;;;-4.00;99.90;;;;;;5057465;28;25089;-81
2023/02/28 07:25:52;;;;;;;11.07;4.28;;;-4.00;99.90;;;;;;5057889;28;25073;-77
2023/02/28 07:28:19;;;;;;;16.58;6.00;;;-4.00;99.90;;;;;;5057724;28;25108;-77
2023/02/28 07:30:47;;;;;;;15.43;5.90;;;-3.90;99.90;;;;;;5039712;28;25103;-77
2023/02/28 07:33:15;;;;;;;17.27;6.47;;;-3.90;99.90;;;;;;5057151;28;25069;-70
2023/02/28 07:35:42;;;;;;;9.20;3.33;;;-3.90;99.90;;;;;;5057432;28;25090;-70
2023/02/28 07:38:10;;;;;;;7.38;3.25;;;-3.80;99.90;;;;;;5057206;28;25062;-70
2023/02/28 07:40:37;;;;;;;6.20;3.00;;;-3.80;99.90;;;;;;5041778;28;25062;-70
2023/02/28 07:43:04;;;;;;;13.85;6.55;;;-3.80;99.90;;;;;;5037791;28;25062;-70
2023/02/28 07:45:34;;;;;;;17.23;7.90;;;-3.70;99.90;;;;;;5036617;28;25127;-69
2023/02/28 07:48:02;;;;;;;14.55;6.82;;;-3.70;99.90;;;;;;5036754;28;25049;-69
2023/02/28 07:50:30;;;;;;;19.13;8.85;;;-3.60;99.90;;;;;;5037091;28;25060;-70
2023/02/28 07:52:59;;;;;;;13.65;7.50;;;-3.50;99.90;;;;;;5036933;28;25118;-69
2023/02/28 07:55:26;;;;;;;18.02;7.05;;;-3.40;99.90;;;;;;5037093;28;25054;-69
2023/02/28 07:57:54;;;;;;;14.50;8.05;;;-3.30;99.90;;;;;;5019386;28;25053;-69
2023/02/28 08:00:22;;;;;;;17.70;8.43;;;-3.30;99.90;;;;;;5036810;28;25053;-69
2023/02/28 08:02:49;;;;;;;20.92;9.45;;;-3.20;99.90;;;;;;5036751;28;25107;-69
2023/02/28 08:05:17;;;;;;;8.77;4.80;;;-3.10;99.90;;;;;;5019405;28;25059;-69
2023/02/28 08:07:44;;;;;;;8.77;4.22;;;-3.00;99.90;;;;;;5036621;28;25137;-69
2023/02/28 08:10:11;;;;;;;11.23;4.50;;;-2.90;99.90;;;;;;5019939;28;25052;-70
2023/02/28 08:12:38;;;;;;;6.55;3.17;;;-2.90;99.90;;;;;;5019539;28;25134;-71
2023/02/28 08:15:06;;;;;;;6.38;2.53;;;-2.80;99.90;;;;;;5019088;28;25051;-72
2023/02/28 08:17:34;;;;;;;8.40;3.20;;;-2.70;99.90;;;;;;5037010;28;25101;-70
2023/02/28 08:20:01;;;;;;;5.65;2.42;;;-2.60;99.90;;;;;;5018960;28;25064;-69
2023/02/28 08:22:28;;;;;;;5.93;2.50;;;-2.50;99.90;;;;;;5018969;28;25054;-71
2023/02/28 08:24:56;;;;;;;7.03;2.70;;;-2.30;99.90;;;;;;5036917;28;25077;-71
2023/02/28 08:27:24;;;;;;;4.15;2.38;;;-2.10;99.90;;;;;;5037016;28;25073;-72
2023/02/28 08:29:51;;;;;;;7.10;2.65;;;-1.90;99.90;;;;;;5019343;28;25078;-72
2023/02/28 08:32:18;;;;;;;5.13;2.60;;;-1.70;99.90;;;;;;5036952;28;25061;-72
2023/02/28 08:34:46;;;;;;;6.28;2.33;;;-1.50;99.90;;;;;;5036718;28;25154;-72
2023/02/28 08:37:13;;;;;;;4.50;2.65;;;-1.30;99.90;;;;;;5018793;28;25055;-72
2023/02/28 08:39:41;;;;;;;5.07;2.45;;;-1.10;99.90;;;;;;5036263;28;25120;-72
2023/02/28 08:42:08;;;;;;;8.30;2.92;;;-0.90;99.90;;;;;;5036315;28;25095;-72
2023/02/28 08:44:36;;;;;;;7.03;2.67;;;-0.70;99.90;;;;;;5036555;28;25107;-72
2023/02/28 08:47:03;;;;;;;7.15;3.17;;;-0.50;99.90;;;;;;5036270;28;25064;-71
2023/02/28 08:49:31;;;;;;;6.07;3.17;;;-0.40;99.90;;;;;;5036355;28;25051;-72
2023/02/28 08:51:58;;;;;;;10.57;4.57;;;-0.20;99.90;;;;;;5036232;28;25095;-72
2023/02/28 08:54:26;;;;;;;6.97;3.25;;;-0.20;99.90;;;;;;5036209;28;25101;-72
2023/02/28 08:56:53;;;;;;;6.65;3.10;;;-0.20;99.90;;;;;;5040281;28;25053;-72
2023/02/28 08:59:20;;;;;;;5.53;2.65;;;-0.30;99.90;;;;;;5040338;28;25054;-72
2023/02/28 09:01:48;;;;;;;5.45;3.10;;;-0.30;99.90;;;;;;5040099;28;25123;-72
2023/02/28 09:04:16;;;;;;;6.47;2.70;;;-0.40;99.90;;;;;;5022608;28;25152;-72
2023/02/28 09:06:44;;;;;;;13.57;5.60;;;-0.50;99.90;;;;;;5040159;28;25163;-71
2023/02/28 09:09:12;;;;;;;13.02;5.95;;;-0.50;99.90;;;;;;5040209;28;25078;-71
2023/02/28 09:11:40;;;;;;;25.60;11.80;;;-0.50;99.90;;;;;;5040594;28;25093;-71
2023/02/28 09:14:07;;;;;;;14.82;7.03;;;-0.40;99.90;;;;;;5040599;28;25143;-72
2023/02/28 09:16:35;;;;;;;18.20;7.97;;;-0.40;99.90;;;;;;5040428;28;25060;-75
2023/02/28 09:19:02;;;;;;;5.53;2.75;;;-0.30;99.90;;;;;;5039993;28;25088;-71
2023/02/28 09:21:30;;;;;;;6.20;2.28;;;-0.20;99.90;;;;;;5040162;28;25147;-70
2023/02/28 09:23:58;;;;;;;4.85;2.40;;;-0.20;99.90;;;;;;5022316;28;25109;-71
2023/02/28 09:26:27;;;;;;;4.35;2.13;;;-0.10;99.90;;;;;;5022211;28;25102;-71
2023/02/28 09:28:58;;;;;;;3.40;2.10;;;-0.10;99.90;;;;;;5039719;28;25062;-71
2023/02/28 09:31:28;;;;;;;6.22;3.17;;;0.10;99.90;;;;;;5023801;28;25069;-71
2023/02/28 09:33:57;;;;;;;5.75;2.72;;;0.10;99.90;;;;;;5039677;28;25131;-71
2023/02/28 09:36:26;;;;;;;7.43;2.85;;;0.20;99.90;;;;;;5021981;28;25055;-72
2023/02/28 09:38:53;;;;;;;5.63;2.95;;;0.30;99.90;;;;;;5039322;28;25125;-71
2023/02/28 09:41:28;;;;;;;8.98;2.65;;;0.30;99.90;;;;;;5039792;28;25071;-71
2023/02/28 09:44:04;;;;;;;6.50;2.95;;;0.30;99.90;;;;;;5039642;28;25050;-72
2023/02/28 09:46:34;;;;;;;6.00;2.85;;;0.40;99.90;;;;;;5039365;28;25074;-70
2023/02/28 09:49:07;;;;;;;5.93;2.85;;;0.40;99.90;;;;;;5021773;28;25099;-70
2023/02/28 09:51:58;;;;;;;8.63;3.58;;;0.50;99.90;;;;;;5039286;28;25059;-71
2023/02/28 09:54:30;;;;;;;7.00;2.40;;;0.50;99.90;;;;;;5039401;28;25064;-70
2023/02/28 09:57:30;;;;;;;5.30;2.13;;;0.60;99.90;;;;;;5039756;28;25056;-71
2023/02/28 10:00:14;;;;;;;5.95;2.13;;;0.60;99.90;;;;;;5037086;28;25072;-71
2023/02/28 10:03:10;;;;;;;7.68;2.45;;;0.70;99.90;;;;;;5038759;28;25088;-71
2023/02/28 10:06:18;;;;;;;5.43;1.85;;;0.80;99.90;;;;;;5039761;28;25116;-70
2023/02/28 10:08:57;;;;;;;;;;;0.90;99.90;;;;;;5038437;28;25111;-70
2023/02/28 10:11:26;;;;;;;4.95;1.73;;;0.90;99.90;;;;;;5039205;28;25142;-71
2023/02/28 10:14:08;;;;;;;4.82;1.92;;;1.00;99.90;;;;;;5021479;28;25076;-70
2023/02/28 10:16:53;;;;;;;6.95;1.95;;;1.10;99.90;;;;;;5038860;28;25095;-71
2023/02/28 10:19:34;;;;;;;6.82;1.90;;;1.20;99.90;;;;;;5038595;28;25085;-71
2023/02/28 10:22:11;;;;;;;6.70;2.25;;;1.30;99.90;;;;;;5038758;28;25066;-71
2023/02/28 10:24:45;;;;;;;4.97;2.40;;;1.30;99.90;;;;;;5039130;28;25128;-70
2023/02/28 10:27:31;;;;;;;5.00;1.77;;;1.40;99.90;;;;;;5038604;28;25139;-70
2023/02/28 10:30:03;;;;;;;4.35;2.00;;;1.50;99.90;;;;;;5021038;28;25116;-71
2023/02/28 10:32:34;;;;;;;4.03;1.50;;;1.60;99.90;;;;;;5038484;28;25066;-71
2023/02/28 10:35:24;;;;;;;4.68;1.90;;;1.70;99.90;;;;;;5039245;28;25073;-70
2023/02/28 10:37:59;;;;;;;5.28;2.00;;;1.80;99.90;;;;;;5038689;28;25058;-71
2023/02/28 10:40:33;;;;;;;5.55;2.05;;;1.90;99.90;;;;;;5044247;28;25080;-74
2023/02/28 10:43:05;;;;;;;5.75;1.60;;;1.90;99.90;;;;;;5058338;28;24960;-71
2023/02/28 10:45:38;;;;;;;4.28;1.90;;;2.00;99.90;;;;;;5057115;28;25139;-72
2023/02/28 10:48:31;;;;;;;5.80;2.53;;;2.10;99.90;;;;;;5058144;28;25059;-72
2023/02/28 10:51:00;;;;;;;3.80;1.63;;;2.10;99.90;;;;;;5058101;28;25082;-72
2023/02/28 10:53:39;;;;;;;3.60;1.92;;;2.10;99.90;;;;;;5058652;28;25137;-72
2023/02/28 10:56:16;;;;;;;4.32;1.60;;;2.10;99.90;;;;;;5058514;28;25106;-72
2023/02/28 10:58:57;;;;;;;4.00;1.77;;;2.10;99.90;;;;;;5058767;28;25097;-71
2023/02/28 11:01:39;;;;;;;3.50;1.50;;;2.10;99.90;;;;;;5058016;28;25058;-72
2023/02/28 11:04:39;;;;;;;6.38;2.35;;;2.10;99.90;;;;;;5058087;28;25007;-72
2023/02/28 11:07:21;;;;;;;3.33;1.95;;;2.20;99.90;;;;;;5058133;28;25069;-72
2023/02/28 11:09:53;;;;;;;5.28;1.85;;;2.20;99.90;;;;;;5058031;28;25120;-72
2023/02/28 11:12:29;;;;;;;4.80;2.25;;;2.20;99.90;;;;;;5058002;28;25079;-72
2023/02/28 11:15:07;;;;;;;3.72;1.83;;;2.30;99.90;;;;;;5057767;28;25049;-72
2023/02/28 11:17:36;;;;;;;4.47;1.80;;;2.40;99.90;;;;;;5056497;28;25107;-78
2023/02/28 11:20:19;;;;;;;3.17;1.23;;;2.50;99.90;;;;;;5056662;28;25083;-78
2023/02/28 11:22:47;;;;;;;2.90;1.20;;;2.60;99.90;;;;;;5057627;28;25065;-80
2023/02/28 11:25:29;;;;;;;3.72;1.25;;;2.70;99.90;;;;;;5056496;28;25102;-77
2023/02/28 11:28:04;;;;;;;2.72;1.40;;;2.80;99.90;;;;;;5057763;28;25113;-78
2023/02/28 11:30:41;;;;;;;1.90;0.75;;;2.90;99.90;;;;;;5057665;28;25457;-77
2023/02/28 11:33:29;;;;;;;1.70;0.95;;;3.00;99.90;;;;;;5057589;28;25066;-79
2023/02/28 11:36:11;;;;;;;7.78;1.15;;;3.10;99.90;;;;;;5057325;28;25063;-79
2023/02/28 11:38:38;;;;;;;3.50;1.45;;;3.20;99.90;;;;;;5056361;28;25060;-79
2023/02/28 11:41:55;;;;;;;3.65;1.50;;;3.30;99.90;;;;;;5055836;28;25069;-82
2023/02/28 11:44:47;;;;;;;2.40;1.20;;;3.40;99.90;;;;;;5043092;28;25065;-81
2023/02/28 11:47:38;;;;;;;2.80;1.30;;;3.50;99.90;;;;;;5057440;28;25061;-85
2023/02/28 11:50:27;;;;;;;3.78;1.20;;;3.70;99.90;;;;;;5057645;28;25089;-85
2023/02/28 11:53:11;;;;;;;2.45;0.80;;;3.80;99.90;;;;;;5056163;28;25055;-87
2023/02/28 11:55:43;;;;;;;2.38;1.02;;;3.90;99.70;;;;;;5056430;28;25052;-85
2023/02/28 11:58:22;;;;;;;2.15;0.93;;;3.80;98.50;;;;;;5056246;28;25052;-83
2023/02/28 12:01:16;;;;;;;3.85;1.67;;;3.70;98.60;;;;;;5057520;28;25074;-86
2023/02/28 12:04:05;;;;;;;3.50;1.50;;;3.60;98.60;;;;;;5056189;28;24992;-80
2023/02/28 12:06:59;;;;;;;3.30;1.83;;;3.60;99.20;;;;;;5055678;28;25093;-79
2023/02/28 12:09:45;;;;;;;3.78;1.73;;;3.50;99.80;;;;;;5055701;28;25070;-77
2023/02/28 12:12:40;;;;;;;3.22;1.55;;;3.60;99.90;;;;;;5057214;28;25071;-76
2023/02/28 12:15:33;;;;;;;6.30;1.92;;;3.50;99.30;;;;;;5055565;28;25131;-77
2023/02/28 12:18:22;;;;;;;4.03;1.70;;;3.50;98.70;;;;;;5055184;28;25151;-74
2023/02/28 12:21:10;;;;;;;7.15;2.70;;;3.30;98.80;;;;;;5056457;28;25058;-74
2023/02/28 12:24:06;;;;;;;3.92;1.30;;;3.20;99.30;;;;;;5056525;28;25086;-76
2023/02/28 12:26:49;;;;;;;6.13;2.13;;;3.20;99.40;;;;;;5055346;28;25054;-74
2023/02/28 12:29:23;;;;;;;3.83;1.50;;;3.10;99.40;;;;;;5056839;28;25104;-73
2023/02/28 12:31:57;;;;;;;3.42;1.60;;;3.20;99.60;;;;;;5056626;28;25078;-74
2023/02/28 12:34:45;;;;;;;3.40;1.10;;;3.20;99.10;;;;;;5056569;28;25060;-74
2023/02/28 12:37:32;;;;;;;1.98;0.95;;;3.30;99.00;;;;;;5056860;28;25102;-72
2023/02/28 12:40:17;;;;;;;5.40;1.65;;;3.40;98.80;;;;;;5046555;28;25055;-69
2023/02/28 12:43:03;;;;;;;4.03;1.30;;;3.60;98.80;;;;;;5036132;28;25071;-72
2023/02/28 12:45:42;;;;;;;3.95;1.52;;;3.80;98.10;;;;;;5036362;28;25100;-72
2023/02/28 12:48:19;;;;;;;4.28;1.52;;;3.90;97.40;;;;;;5036190;28;25053;-73
2023/02/28 12:50:48;;;;;;;2.95;1.40;;;4.00;97.20;;;;;;5036249;28;25097;-72
2023/02/28 12:53:33;;;;;;;2.10;1.10;;;4.10;97.40;;;;;;5018672;28;25074;-75
2023/02/28 12:56:04;;;;;;;4.30;1.55;;;4.20;97.00;;;;;;5018624;28;25141;-74
2023/02/28 12:58:34;;;;;;;5.75;1.58;;;4.20;97.00;;;;;;5036869;28;25065;-74
2023/02/28 13:01:38;;;;;;;3.28;1.27;;;4.30;96.90;;;;;;5018608;28;25066;-74
2023/02/28 13:04:24;;;;;;;5.63;2.35;;;4.40;96.90;;;;;;5036405;28;25100;-72
2023/02/28 13:07:31;;;;;;;3.28;1.48;;;4.40;96.60;;;;;;5018619;28;25085;-74
2023/02/28 13:10:02;;;;;;;2.50;1.40;;;4.50;96.20;;;;;;5018741;28;25093;-74
2023/02/28 13:12:30;;;;;;;4.78;1.75;;;4.50;96.20;;;;;;5036085;28;25101;-74
2023/02/28 13:15:24;;;;;;;4.30;1.58;;;4.50;96.30;;;;;;5036373;28;25055;-74
2023/02/28 13:17:55;;;;;;;5.57;2.03;;;4.50;96.40;;;;;;5035932;28;25064;-72
2023/02/28 13:20:27;;;;;;;3.00;1.35;;;4.50;96.30;;;;;;5035884;28;25057;-72
2023/02/28 13:22:57;;;;;;;6.50;2.03;;;4.60;96.00;;;;;;5036187;28;25099;-73
2023/02/28 13:25:33;;;;;;;6.95;2.42;;;4.50;95.80;;;;;;5035878;28;25073;-72